sensor_id;sensor_type;location;lat;lon;timestamp;P1;durP1;ratioP1;P2;durP2;ratioP2
55720;SDS011;41626;53.098;6.168;2022-08-21T00:02:19;9.70;;;4.78;;
55720;SDS011;41626;53.098;6.168;2022-08-21T00:04:46;6.43;;;5.10;;
55720;SDS011;41626;53.098;6.168;2022-08-21T00:07:13;11.52;;;6.18;;
55720;SDS011;41626;53.098;6.168;2022-08-21T00:09:39;15.70;;;5.50;;
55720;SDS011;41626;53.098;6.168;2022-08-21T00:12:05;8.98;;;4.57;;
55720;SDS011;41626;53.098;6.168;2022-08-21T00:14:30;11.23;;;5.30;;
55720;SDS011;41626;53.098;6.168;2022-08-21T00:16:57;7.55;;;5.18;;
55720;SDS011;41626;53.098;6.168;2022-08-21T00:19:23;12.60;;;6.35;;
55720;SDS011;41626;53.098;6.168;2022-08-21T00:21:50;11.02;;;4.97;;
55720;SDS011;41626;53.098;6.168;2022-08-21T00:24:17;7.13;;;4.75;;
55720;SDS011;41626;53.098;6.168;2022-08-21T00:26:43;8.27;;;5.07;;
55720;SDS011;41626;53.098;6.168;2022-08-21T00:29:09;11.23;;;6.20;;
55720;SDS011;41626;53.098;6.168;2022-08-21T00:31:35;10.05;;;5.72;;
55720;SDS011;41626;53.098;6.168;2022-08-21T00:34:01;11.95;;;6.47;;
55720;SDS011;41626;53.098;6.168;2022-08-21T00:36:27;15.73;;;6.78;;
55720;SDS011;41626;53.098;6.168;2022-08-21T00:38:54;9.80;;;4.97;;
55720;SDS011;41626;53.098;6.168;2022-08-21T00:41:20;10.15;;;5.45;;
55720;SDS011;41626;53.098;6.168;2022-08-21T00:43:48;10.93;;;4.95;;
55720;SDS011;41626;53.098;6.168;2022-08-21T00:46:14;11.52;;;6.65;;
55720;SDS011;41626;53.098;6.168;2022-08-21T00:48:40;9.57;;;4.68;;
55720;SDS011;41626;53.098;6.168;2022-08-21T00:51:17;9.40;;;5.05;;
55720;SDS011;41626;53.098;6.168;2022-08-21T00:53:51;9.48;;;5.60;;
55720;SDS011;41626;53.098;6.168;2022-08-21T00:56:21;8.10;;;5.13;;
55720;SDS011;41626;53.098;6.168;2022-08-21T00:58:49;11.00;;;6.32;;
55720;SDS011;41626;53.098;6.168;2022-08-21T01:01:16;11.32;;;5.47;;
55720;SDS011;41626;53.098;6.168;2022-08-21T01:03:42;15.70;;;6.35;;
55720;SDS011;41626;53.098;6.168;2022-08-21T01:06:08;10.07;;;4.80;;
55720;SDS011;41626;53.098;6.168;2022-08-21T01:08:34;9.68;;;5.10;;
55720;SDS011;41626;53.098;6.168;2022-08-21T01:11:01;8.00;;;5.90;;
55720;SDS011;41626;53.098;6.168;2022-08-21T01:13:29;9.75;;;5.20;;
55720;SDS011;41626;53.098;6.168;2022-08-21T01:15:56;9.65;;;5.85;;
55720;SDS011;41626;53.098;6.168;2022-08-21T01:18:24;9.48;;;5.45;;
55720;SDS011;41626;53.098;6.168;2022-08-21T01:23:38;13.98;;;5.43;;
55720;SDS011;41626;53.098;6.168;2022-08-21T01:26:06;9.43;;;6.47;;
55720;SDS011;41626;53.098;6.168;2022-08-21T01:28:33;13.20;;;7.05;;
55720;SDS011;41626;53.098;6.168;2022-08-21T01:31:03;6.50;;;5.53;;
55720;SDS011;41626;53.098;6.168;2022-08-21T01:33:31;9.60;;;5.95;;
55720;SDS011;41626;53.098;6.168;2022-08-21T01:35:56;13.07;;;7.10;;
55720;SDS011;41626;53.098;6.168;2022-08-21T01:38:22;8.85;;;6.13;;
55720;SDS011;41626;53.098;6.168;2022-08-21T01:40:49;11.45;;;7.00;;
55720;SDS011;41626;53.098;6.168;2022-08-21T01:43:15;16.10;;;6.65;;
55720;SDS011;41626;53.098;6.168;2022-08-21T01:45:40;6.97;;;4.88;;
55720;SDS011;41626;53.098;6.168;2022-08-21T01:48:06;9.82;;;6.00;;
55720;SDS011;41626;53.098;6.168;2022-08-21T01:50:32;9.27;;;6.25;;
55720;SDS011;41626;53.098;6.168;2022-08-21T01:52:57;11.38;;;5.90;;
55720;SDS011;41626;53.098;6.168;2022-08-21T01:55:23;16.50;;;5.85;;
55720;SDS011;41626;53.098;6.168;2022-08-21T01:57:49;11.43;;;7.43;;
55720;SDS011;41626;53.098;6.168;2022-08-21T02:00:16;7.90;;;6.35;;
55720;SDS011;41626;53.098;6.168;2022-08-21T02:02:43;10.98;;;6.10;;
55720;SDS011;41626;53.098;6.168;2022-08-21T02:05:10;12.45;;;6.80;;
55720;SDS011;41626;53.098;6.168;2022-08-21T02:07:38;9.98;;;6.35;;
55720;SDS011;41626;53.098;6.168;2022-08-21T02:10:06;13.07;;;6.93;;
55720;SDS011;41626;53.098;6.168;2022-08-21T02:12:33;17.48;;;6.47;;
55720;SDS011;41626;53.098;6.168;2022-08-21T02:14:59;9.35;;;6.72;;
55720;SDS011;41626;53.098;6.168;2022-08-21T02:17:25;18.25;;;8.30;;
55720;SDS011;41626;53.098;6.168;2022-08-21T02:19:51;11.05;;;6.70;;
55720;SDS011;41626;53.098;6.168;2022-08-21T02:22:17;10.60;;;8.15;;
55720;SDS011;41626;53.098;6.168;2022-08-21T02:24:43;16.38;;;7.70;;
55720;SDS011;41626;53.098;6.168;2022-08-21T02:27:09;8.73;;;6.15;;
55720;SDS011;41626;53.098;6.168;2022-08-21T02:29:34;12.32;;;5.95;;
55720;SDS011;41626;53.098;6.168;2022-08-21T02:32:00;12.52;;;7.35;;
55720;SDS011;41626;53.098;6.168;2022-08-21T02:34:25;18.88;;;8.02;;
55720;SDS011;41626;53.098;6.168;2022-08-21T02:36:51;9.90;;;6.18;;
55720;SDS011;41626;53.098;6.168;2022-08-21T02:39:17;8.95;;;5.68;;
55720;SDS011;41626;53.098;6.168;2022-08-21T02:41:42;8.98;;;6.97;;
55720;SDS011;41626;53.098;6.168;2022-08-21T02:44:08;15.65;;;8.52;;
55720;SDS011;41626;53.098;6.168;2022-08-21T02:46:34;9.65;;;7.50;;
55720;SDS011;41626;53.098;6.168;2022-08-21T02:49:00;12.02;;;6.15;;
55720;SDS011;41626;53.098;6.168;2022-08-21T02:51:25;12.65;;;6.97;;
55720;SDS011;41626;53.098;6.168;2022-08-21T02:53:52;9.80;;;6.95;;
55720;SDS011;41626;53.098;6.168;2022-08-21T02:56:19;11.23;;;7.32;;
55720;SDS011;41626;53.098;6.168;2022-08-21T02:58:47;16.65;;;7.78;;
55720;SDS011;41626;53.098;6.168;2022-08-21T03:01:16;17.13;;;7.65;;
55720;SDS011;41626;53.098;6.168;2022-08-21T03:03:44;10.15;;;7.20;;
55720;SDS011;41626;53.098;6.168;2022-08-21T03:06:13;17.42;;;8.00;;
55720;SDS011;41626;53.098;6.168;2022-08-21T03:08:40;13.80;;;7.13;;
55720;SDS011;41626;53.098;6.168;2022-08-21T03:11:06;14.27;;;7.78;;
55720;SDS011;41626;53.098;6.168;2022-08-21T03:13:32;11.80;;;7.13;;
55720;SDS011;41626;53.098;6.168;2022-08-21T03:15:58;11.65;;;6.93;;
55720;SDS011;41626;53.098;6.168;2022-08-21T03:18:24;12.15;;;7.53;;
55720;SDS011;41626;53.098;6.168;2022-08-21T03:20:50;11.95;;;7.78;;
55720;SDS011;41626;53.098;6.168;2022-08-21T03:23:16;9.98;;;7.43;;
55720;SDS011;41626;53.098;6.168;2022-08-21T03:25:43;14.05;;;8.57;;
55720;SDS011;41626;53.098;6.168;2022-08-21T03:28:12;11.85;;;8.68;;
55720;SDS011;41626;53.098;6.168;2022-08-21T03:30:40;10.30;;;8.47;;
55720;SDS011;41626;53.098;6.168;2022-08-21T03:33:07;11.73;;;7.80;;
55720;SDS011;41626;53.098;6.168;2022-08-21T03:35:32;9.63;;;7.13;;
55720;SDS011;41626;53.098;6.168;2022-08-21T03:37:58;14.73;;;6.80;;
55720;SDS011;41626;53.098;6.168;2022-08-21T03:40:24;8.20;;;7.20;;
55720;SDS011;41626;53.098;6.168;2022-08-21T03:42:50;11.15;;;6.88;;
55720;SDS011;41626;53.098;6.168;2022-08-21T03:45:16;11.45;;;7.55;;
55720;SDS011;41626;53.098;6.168;2022-08-21T03:50:20;12.15;;;7.05;;
55720;SDS011;41626;53.098;6.168;2022-08-21T03:52:46;8.40;;;6.55;;
55720;SDS011;41626;53.098;6.168;2022-08-21T03:55:12;12.57;;;8.95;;
55720;SDS011;41626;53.098;6.168;2022-08-21T03:57:38;16.15;;;8.43;;
55720;SDS011;41626;53.098;6.168;2022-08-21T04:00:04;15.52;;;8.48;;
55720;SDS011;41626;53.098;6.168;2022-08-21T04:02:32;11.98;;;8.18;;
55720;SDS011;41626;53.098;6.168;2022-08-21T04:04:58;13.68;;;7.88;;
55720;SDS011;41626;53.098;6.168;2022-08-21T04:07:24;9.57;;;7.70;;
55720;SDS011;41626;53.098;6.168;2022-08-21T04:09:50;15.32;;;10.25;;
55720;SDS011;41626;53.098;6.168;2022-08-21T04:12:15;16.30;;;9.00;;
55720;SDS011;41626;53.098;6.168;2022-08-21T04:14:41;14.98;;;7.78;;
55720;SDS011;41626;53.098;6.168;2022-08-21T04:17:07;10.80;;;7.82;;
55720;SDS011;41626;53.098;6.168;2022-08-21T04:19:32;12.93;;;7.65;;
55720;SDS011;41626;53.098;6.168;2022-08-21T04:21:58;12.30;;;8.15;;
55720;SDS011;41626;53.098;6.168;2022-08-21T04:24:23;13.20;;;7.40;;
55720;SDS011;41626;53.098;6.168;2022-08-21T04:26:49;11.32;;;8.50;;
55720;SDS011;41626;53.098;6.168;2022-08-21T04:29:15;12.63;;;8.63;;
55720;SDS011;41626;53.098;6.168;2022-08-21T04:31:40;10.63;;;7.35;;
55720;SDS011;41626;53.098;6.168;2022-08-21T04:34:08;11.75;;;7.82;;
55720;SDS011;41626;53.098;6.168;2022-08-21T04:36:34;14.60;;;8.15;;
55720;SDS011;41626;53.098;6.168;2022-08-21T04:39:00;13.52;;;9.13;;
55720;SDS011;41626;53.098;6.168;2022-08-21T04:41:26;8.50;;;6.72;;
55720;SDS011;41626;53.098;6.168;2022-08-21T04:43:52;11.07;;;8.77;;
55720;SDS011;41626;53.098;6.168;2022-08-21T04:46:20;14.45;;;8.88;;
55720;SDS011;41626;53.098;6.168;2022-08-21T04:48:46;11.05;;;7.60;;
55720;SDS011;41626;53.098;6.168;2022-08-21T04:51:13;13.00;;;8.45;;
55720;SDS011;41626;53.098;6.168;2022-08-21T04:53:47;10.68;;;7.25;;
55720;SDS011;41626;53.098;6.168;2022-08-21T04:56:40;13.07;;;7.40;;
55720;SDS011;41626;53.098;6.168;2022-08-21T04:59:12;11.90;;;7.18;;
55720;SDS011;41626;53.098;6.168;2022-08-21T05:01:41;12.88;;;7.18;;
55720;SDS011;41626;53.098;6.168;2022-08-21T05:04:09;10.05;;;7.03;;
55720;SDS011;41626;53.098;6.168;2022-08-21T05:06:37;13.10;;;8.00;;
55720;SDS011;41626;53.098;6.168;2022-08-21T05:09:06;9.93;;;7.97;;
55720;SDS011;41626;53.098;6.168;2022-08-21T05:11:34;10.60;;;6.18;;
55720;SDS011;41626;53.098;6.168;2022-08-21T05:14:02;17.10;;;7.10;;
55720;SDS011;41626;53.098;6.168;2022-08-21T05:16:27;10.40;;;6.40;;
55720;SDS011;41626;53.098;6.168;2022-08-21T05:18:53;15.32;;;8.13;;
55720;SDS011;41626;53.098;6.168;2022-08-21T05:21:19;10.05;;;5.88;;
55720;SDS011;41626;53.098;6.168;2022-08-21T05:23:45;11.63;;;7.55;;
55720;SDS011;41626;53.098;6.168;2022-08-21T05:26:11;22.02;;;8.82;;
55720;SDS011;41626;53.098;6.168;2022-08-21T05:28:37;11.73;;;6.40;;
55720;SDS011;41626;53.098;6.168;2022-08-21T05:31:02;11.02;;;7.43;;
55720;SDS011;41626;53.098;6.168;2022-08-21T05:33:28;23.90;;;8.20;;
55720;SDS011;41626;53.098;6.168;2022-08-21T05:35:54;14.82;;;5.40;;
55720;SDS011;41626;53.098;6.168;2022-08-21T05:38:24;13.95;;;7.40;;
55720;SDS011;41626;53.098;6.168;2022-08-21T05:40:52;12.45;;;7.20;;
55720;SDS011;41626;53.098;6.168;2022-08-21T05:43:18;14.93;;;6.20;;
55720;SDS011;41626;53.098;6.168;2022-08-21T05:45:44;11.07;;;6.82;;
55720;SDS011;41626;53.098;6.168;2022-08-21T05:48:18;11.65;;;6.50;;
55720;SDS011;41626;53.098;6.168;2022-08-21T05:50:46;13.93;;;5.85;;
55720;SDS011;41626;53.098;6.168;2022-08-21T05:53:13;14.77;;;5.90;;
55720;SDS011;41626;53.098;6.168;2022-08-21T05:55:40;11.60;;;6.25;;
55720;SDS011;41626;53.098;6.168;2022-08-21T05:58:06;13.80;;;7.72;;
55720;SDS011;41626;53.098;6.168;2022-08-21T06:00:32;22.17;;;8.48;;
55720;SDS011;41626;53.098;6.168;2022-08-21T06:02:58;10.15;;;6.05;;
55720;SDS011;41626;53.098;6.168;2022-08-21T06:05:24;11.75;;;6.10;;
55720;SDS011;41626;53.098;6.168;2022-08-21T06:07:50;13.35;;;6.30;;
55720;SDS011;41626;53.098;6.168;2022-08-21T06:10:16;13.93;;;7.07;;
55720;SDS011;41626;53.098;6.168;2022-08-21T06:12:42;16.00;;;6.90;;
55720;SDS011;41626;53.098;6.168;2022-08-21T06:15:08;12.02;;;6.72;;
55720;SDS011;41626;53.098;6.168;2022-08-21T06:17:34;11.70;;;5.38;;
55720;SDS011;41626;53.098;6.168;2022-08-21T06:19:59;17.08;;;6.25;;
55720;SDS011;41626;53.098;6.168;2022-08-21T06:22:25;12.43;;;6.32;;
55720;SDS011;41626;53.098;6.168;2022-08-21T06:24:51;9.82;;;5.68;;
55720;SDS011;41626;53.098;6.168;2022-08-21T06:27:17;19.55;;;5.88;;
55720;SDS011;41626;53.098;6.168;2022-08-21T06:29:42;10.10;;;5.78;;
55720;SDS011;41626;53.098;6.168;2022-08-21T06:32:10;12.55;;;5.05;;
55720;SDS011;41626;53.098;6.168;2022-08-21T06:34:38;12.60;;;6.10;;
55720;SDS011;41626;53.098;6.168;2022-08-21T06:37:05;12.95;;;5.93;;
55720;SDS011;41626;53.098;6.168;2022-08-21T06:39:31;11.32;;;5.13;;
55720;SDS011;41626;53.098;6.168;2022-08-21T06:41:57;10.85;;;5.47;;
55720;SDS011;41626;53.098;6.168;2022-08-21T06:44:23;9.20;;;5.13;;
55720;SDS011;41626;53.098;6.168;2022-08-21T06:46:48;15.43;;;5.20;;
55720;SDS011;41626;53.098;6.168;2022-08-21T06:49:14;9.27;;;4.50;;
55720;SDS011;41626;53.098;6.168;2022-08-21T06:51:40;12.73;;;5.13;;
55720;SDS011;41626;53.098;6.168;2022-08-21T06:54:06;8.02;;;3.95;;
55720;SDS011;41626;53.098;6.168;2022-08-21T06:56:31;12.60;;;4.32;;
55720;SDS011;41626;53.098;6.168;2022-08-21T06:58:58;8.05;;;3.78;;
55720;SDS011;41626;53.098;6.168;2022-08-21T07:01:25;8.43;;;4.50;;
55720;SDS011;41626;53.098;6.168;2022-08-21T07:03:51;8.48;;;4.65;;
55720;SDS011;41626;53.098;6.168;2022-08-21T07:06:17;8.80;;;2.90;;
55720;SDS011;41626;53.098;6.168;2022-08-21T07:08:43;11.60;;;3.78;;
55720;SDS011;41626;53.098;6.168;2022-08-21T07:11:14;12.15;;;4.07;;
55720;SDS011;41626;53.098;6.168;2022-08-21T07:13:49;13.30;;;3.03;;
55720;SDS011;41626;53.098;6.168;2022-08-21T07:16:16;8.85;;;2.88;;
55720;SDS011;41626;53.098;6.168;2022-08-21T07:18:42;8.27;;;3.15;;
55720;SDS011;41626;53.098;6.168;2022-08-21T07:21:08;10.45;;;3.08;;
55720;SDS011;41626;53.098;6.168;2022-08-21T07:23:39;6.32;;;2.55;;
55720;SDS011;41626;53.098;6.168;2022-08-21T07:26:07;9.50;;;3.70;;
55720;SDS011;41626;53.098;6.168;2022-08-21T07:28:34;13.90;;;3.65;;
55720;SDS011;41626;53.098;6.168;2022-08-21T07:31:00;12.73;;;4.15;;
55720;SDS011;41626;53.098;6.168;2022-08-21T07:33:28;5.75;;;3.45;;
55720;SDS011;41626;53.098;6.168;2022-08-21T07:35:55;13.10;;;5.90;;
55720;SDS011;41626;53.098;6.168;2022-08-21T07:38:21;9.43;;;3.30;;
55720;SDS011;41626;53.098;6.168;2022-08-21T07:40:47;15.68;;;3.40;;
55720;SDS011;41626;53.098;6.168;2022-08-21T07:43:14;7.80;;;3.15;;
55720;SDS011;41626;53.098;6.168;2022-08-21T07:45:43;12.27;;;3.25;;
55720;SDS011;41626;53.098;6.168;2022-08-21T07:48:09;8.10;;;3.65;;
55720;SDS011;41626;53.098;6.168;2022-08-21T07:50:36;17.42;;;4.40;;
55720;SDS011;41626;53.098;6.168;2022-08-21T07:53:02;10.32;;;3.80;;
55720;SDS011;41626;53.098;6.168;2022-08-21T07:55:29;5.75;;;2.88;;
55720;SDS011;41626;53.098;6.168;2022-08-21T07:57:54;11.85;;;4.22;;
55720;SDS011;41626;53.098;6.168;2022-08-21T08:00:21;12.70;;;3.78;;
55720;SDS011;41626;53.098;6.168;2022-08-21T08:02:49;8.70;;;3.20;;
55720;SDS011;41626;53.098;6.168;2022-08-21T08:05:16;13.63;;;4.10;;
55720;SDS011;41626;53.098;6.168;2022-08-21T08:07:43;11.52;;;3.92;;
55720;SDS011;41626;53.098;6.168;2022-08-21T08:10:09;13.40;;;4.18;;
55720;SDS011;41626;53.098;6.168;2022-08-21T08:12:36;9.40;;;2.50;;
55720;SDS011;41626;53.098;6.168;2022-08-21T08:15:04;16.33;;;3.45;;
55720;SDS011;41626;53.098;6.168;2022-08-21T08:17:31;8.98;;;2.75;;
55720;SDS011;41626;53.098;6.168;2022-08-21T08:19:57;8.73;;;2.83;;
55720;SDS011;41626;53.098;6.168;2022-08-21T08:22:25;13.35;;;3.22;;
55720;SDS011;41626;53.098;6.168;2022-08-21T08:24:52;10.05;;;3.20;;
55720;SDS011;41626;53.098;6.168;2022-08-21T08:27:18;12.88;;;4.80;;
55720;SDS011;41626;53.098;6.168;2022-08-21T08:29:44;9.02;;;2.97;;
55720;SDS011;41626;53.098;6.168;2022-08-21T08:32:10;11.63;;;3.17;;
55720;SDS011;41626;53.098;6.168;2022-08-21T08:34:37;13.35;;;4.38;;
55720;SDS011;41626;53.098;6.168;2022-08-21T08:37:06;8.07;;;3.78;;
55720;SDS011;41626;53.098;6.168;2022-08-21T08:42:11;10.48;;;4.07;;
55720;SDS011;41626;53.098;6.168;2022-08-21T08:44:42;10.70;;;3.20;;
55720;SDS011;41626;53.098;6.168;2022-08-21T08:47:13;15.20;;;4.38;;
55720;SDS011;41626;53.098;6.168;2022-08-21T08:52:35;9.75;;;3.50;;
55720;SDS011;41626;53.098;6.168;2022-08-21T08:57:46;11.77;;;3.20;;
55720;SDS011;41626;53.098;6.168;2022-08-21T09:00:15;10.38;;;3.13;;
55720;SDS011;41626;53.098;6.168;2022-08-21T09:02:44;13.05;;;3.58;;
55720;SDS011;41626;53.098;6.168;2022-08-21T09:05:31;7.35;;;2.95;;
55720;SDS011;41626;53.098;6.168;2022-08-21T09:08:23;15.20;;;2.83;;
55720;SDS011;41626;53.098;6.168;2022-08-21T09:11:48;9.95;;;2.60;;
55720;SDS011;41626;53.098;6.168;2022-08-21T09:19:36;14.18;;;2.88;;
55720;SDS011;41626;53.098;6.168;2022-08-21T09:27:22;14.02;;;2.70;;
55720;SDS011;41626;53.098;6.168;2022-08-21T09:29:48;12.57;;;3.65;;
55720;SDS011;41626;53.098;6.168;2022-08-21T09:32:22;10.50;;;2.42;;
55720;SDS011;41626;53.098;6.168;2022-08-21T09:34:55;8.90;;;2.90;;
55720;SDS011;41626;53.098;6.168;2022-08-21T09:37:47;5.43;;;2.00;;
55720;SDS011;41626;53.098;6.168;2022-08-21T09:40:18;10.43;;;3.70;;
55720;SDS011;41626;53.098;6.168;2022-08-21T09:43:05;11.77;;;2.67;;
55720;SDS011;41626;53.098;6.168;2022-08-21T09:45:43;8.43;;;2.65;;
55720;SDS011;41626;53.098;6.168;2022-08-21T09:48:23;10.48;;;3.42;;
55720;SDS011;41626;53.098;6.168;2022-08-21T09:50:50;6.65;;;1.77;;
55720;SDS011;41626;53.098;6.168;2022-08-21T09:53:21;9.73;;;2.08;;
55720;SDS011;41626;53.098;6.168;2022-08-21T09:55:56;10.57;;;2.38;;
55720;SDS011;41626;53.098;6.168;2022-08-21T09:58:44;10.27;;;2.30;;
55720;SDS011;41626;53.098;6.168;2022-08-21T10:01:13;9.95;;;3.22;;
55720;SDS011;41626;53.098;6.168;2022-08-21T10:03:40;5.75;;;1.92;;
55720;SDS011;41626;53.098;6.168;2022-08-21T10:06:08;11.07;;;2.28;;
55720;SDS011;41626;53.098;6.168;2022-08-21T10:08:37;13.15;;;2.38;;
55720;SDS011;41626;53.098;6.168;2022-08-21T10:11:07;8.15;;;2.28;;
55720;SDS011;41626;53.098;6.168;2022-08-21T10:16:31;5.95;;;1.80;;
55720;SDS011;41626;53.098;6.168;2022-08-21T10:27:27;7.32;;;2.35;;
55720;SDS011;41626;53.098;6.168;2022-08-21T10:30:19;7.82;;;1.88;;
55720;SDS011;41626;53.098;6.168;2022-08-21T10:35:40;9.82;;;2.25;;
55720;SDS011;41626;53.098;6.168;2022-08-21T10:38:32;9.43;;;2.13;;
55720;SDS011;41626;53.098;6.168;2022-08-21T10:47:00;11.27;;;3.53;;
55720;SDS011;41626;53.098;6.168;2022-08-21T10:49:44;6.53;;;2.53;;
55720;SDS011;41626;53.098;6.168;2022-08-21T10:54:52;13.23;;;2.65;;
55720;SDS011;41626;53.098;6.168;2022-08-21T10:57:21;6.88;;;2.65;;
55720;SDS011;41626;53.098;6.168;2022-08-21T11:00:33;17.10;;;3.00;;
55720;SDS011;41626;53.098;6.168;2022-08-21T11:02:56;8.52;;;3.00;;
55720;SDS011;41626;53.098;6.168;2022-08-21T11:05:46;8.23;;;1.80;;
55720;SDS011;41626;53.098;6.168;2022-08-21T11:08:51;12.85;;;3.20;;
55720;SDS011;41626;53.098;6.168;2022-08-21T11:11:34;8.40;;;2.28;;
55720;SDS011;41626;53.098;6.168;2022-08-21T11:14:11;7.78;;;1.73;;
55720;SDS011;41626;53.098;6.168;2022-08-21T11:17:06;10.55;;;2.03;;
55720;SDS011;41626;53.098;6.168;2022-08-21T11:19:51;9.32;;;2.15;;
55720;SDS011;41626;53.098;6.168;2022-08-21T11:22:26;9.00;;;2.72;;
55720;SDS011;41626;53.098;6.168;2022-08-21T11:25:03;10.45;;;3.22;;
55720;SDS011;41626;53.098;6.168;2022-08-21T11:27:52;9.70;;;2.17;;
55720;SDS011;41626;53.098;6.168;2022-08-21T11:30:47;6.07;;;1.83;;
55720;SDS011;41626;53.098;6.168;2022-08-21T11:44:59;6.00;;;1.77;;
55720;SDS011;41626;53.098;6.168;2022-08-21T11:47:52;5.57;;;1.65;;
55720;SDS011;41626;53.098;6.168;2022-08-21T11:50:31;3.58;;;1.48;;
55720;SDS011;41626;53.098;6.168;2022-08-21T11:55:43;2.72;;;1.00;;
55720;SDS011;41626;53.098;6.168;2022-08-21T11:58:29;4.85;;;1.20;;
55720;SDS011;41626;53.098;6.168;2022-08-21T12:01:18;4.50;;;1.65;;
55720;SDS011;41626;53.098;6.168;2022-08-21T12:03:58;11.25;;;3.00;;
55720;SDS011;41626;53.098;6.168;2022-08-21T12:06:32;3.42;;;1.08;;
55720;SDS011;41626;53.098;6.168;2022-08-21T12:09:51;7.57;;;1.87;;
55720;SDS011;41626;53.098;6.168;2022-08-21T12:14:48;12.90;;;3.13;;
55720;SDS011;41626;53.098;6.168;2022-08-21T12:17:20;10.52;;;3.47;;
55720;SDS011;41626;53.098;6.168;2022-08-21T12:20:00;6.13;;;1.35;;
55720;SDS011;41626;53.098;6.168;2022-08-21T12:22:41;5.53;;;2.15;;
55720;SDS011;41626;53.098;6.168;2022-08-21T12:25:16;5.03;;;1.25;;
55720;SDS011;41626;53.098;6.168;2022-08-21T12:27:47;5.32;;;1.42;;
55720;SDS011;41626;53.098;6.168;2022-08-21T12:32:56;4.93;;;1.65;;
55720;SDS011;41626;53.098;6.168;2022-08-21T12:38:26;3.55;;;1.23;;
55720;SDS011;41626;53.098;6.168;2022-08-21T12:41:18;5.40;;;1.73;;
55720;SDS011;41626;53.098;6.168;2022-08-21T12:43:50;4.35;;;1.60;;
55720;SDS011;41626;53.098;6.168;2022-08-21T12:46:22;4.40;;;1.05;;
55720;SDS011;41626;53.098;6.168;2022-08-21T12:49:12;5.05;;;1.13;;
55720;SDS011;41626;53.098;6.168;2022-08-21T12:54:41;7.32;;;1.27;;
55720;SDS011;41626;53.098;6.168;2022-08-21T12:57:17;8.63;;;2.80;;
55720;SDS011;41626;53.098;6.168;2022-08-21T12:59:51;5.65;;;1.65;;
55720;SDS011;41626;53.098;6.168;2022-08-21T13:02:23;5.38;;;1.75;;
55720;SDS011;41626;53.098;6.168;2022-08-21T13:04:53;5.82;;;1.67;;
55720;SDS011;41626;53.098;6.168;2022-08-21T13:07:31;8.45;;;1.90;;
55720;SDS011;41626;53.098;6.168;2022-08-21T13:10:03;4.93;;;2.03;;
55720;SDS011;41626;53.098;6.168;2022-08-21T13:12:32;7.38;;;2.17;;
55720;SDS011;41626;53.098;6.168;2022-08-21T13:15:02;4.82;;;1.45;;
55720;SDS011;41626;53.098;6.168;2022-08-21T13:17:31;6.75;;;1.48;;
55720;SDS011;41626;53.098;6.168;2022-08-21T13:20:01;6.30;;;1.83;;
55720;SDS011;41626;53.098;6.168;2022-08-21T13:22:44;7.30;;;1.73;;
55720;SDS011;41626;53.098;6.168;2022-08-21T13:25:12;7.70;;;2.42;;
55720;SDS011;41626;53.098;6.168;2022-08-21T13:27:41;8.30;;;1.90;;
55720;SDS011;41626;53.098;6.168;2022-08-21T13:30:10;7.30;;;1.95;;
55720;SDS011;41626;53.098;6.168;2022-08-21T13:32:44;4.25;;;1.63;;
55720;SDS011;41626;53.098;6.168;2022-08-21T13:35:17;6.47;;;1.67;;
55720;SDS011;41626;53.098;6.168;2022-08-21T13:37:46;7.07;;;2.28;;
55720;SDS011;41626;53.098;6.168;2022-08-21T13:40:19;6.75;;;1.55;;
55720;SDS011;41626;53.098;6.168;2022-08-21T13:42:49;5.20;;;1.60;;
55720;SDS011;41626;53.098;6.168;2022-08-21T13:45:17;6.07;;;1.60;;
55720;SDS011;41626;53.098;6.168;2022-08-21T13:47:47;4.13;;;1.13;;
55720;SDS011;41626;53.098;6.168;2022-08-21T13:50:13;8.73;;;1.60;;
55720;SDS011;41626;53.098;6.168;2022-08-21T13:52:46;6.85;;;1.73;;
55720;SDS011;41626;53.098;6.168;2022-08-21T13:55:33;4.95;;;1.65;;
55720;SDS011;41626;53.098;6.168;2022-08-21T13:58:04;5.60;;;1.30;;
55720;SDS011;41626;53.098;6.168;2022-08-21T14:00:32;5.50;;;1.50;;
55720;SDS011;41626;53.098;6.168;2022-08-21T14:03:04;3.67;;;1.23;;
55720;SDS011;41626;53.098;6.168;2022-08-21T14:05:34;5.90;;;2.67;;
55720;SDS011;41626;53.098;6.168;2022-08-21T14:10:49;9.13;;;1.65;;
55720;SDS011;41626;53.098;6.168;2022-08-21T14:13:36;9.68;;;2.47;;
55720;SDS011;41626;53.098;6.168;2022-08-21T14:16:03;5.45;;;1.38;;
55720;SDS011;41626;53.098;6.168;2022-08-21T14:18:47;5.50;;;1.10;;
55720;SDS011;41626;53.098;6.168;2022-08-21T14:23:58;4.75;;;1.63;;
55720;SDS011;41626;53.098;6.168;2022-08-21T14:26:24;5.28;;;1.55;;
55720;SDS011;41626;53.098;6.168;2022-08-21T14:28:50;7.68;;;1.58;;
55720;SDS011;41626;53.098;6.168;2022-08-21T14:31:17;4.85;;;1.60;;
55720;SDS011;41626;53.098;6.168;2022-08-21T14:33:45;4.30;;;1.42;;
55720;SDS011;41626;53.098;6.168;2022-08-21T14:36:11;5.32;;;1.30;;
55720;SDS011;41626;53.098;6.168;2022-08-21T14:38:38;8.23;;;1.55;;
55720;SDS011;41626;53.098;6.168;2022-08-21T14:41:17;5.85;;;1.77;;
55720;SDS011;41626;53.098;6.168;2022-08-21T14:43:46;4.32;;;1.67;;
55720;SDS011;41626;53.098;6.168;2022-08-21T14:46:13;4.72;;;1.25;;
55720;SDS011;41626;53.098;6.168;2022-08-21T14:48:51;7.65;;;1.85;;
55720;SDS011;41626;53.098;6.168;2022-08-21T14:51:17;3.10;;;1.27;;
55720;SDS011;41626;53.098;6.168;2022-08-21T14:53:43;6.63;;;1.52;;
55720;SDS011;41626;53.098;6.168;2022-08-21T14:56:09;5.93;;;1.70;;
55720;SDS011;41626;53.098;6.168;2022-08-21T14:58:40;4.90;;;1.60;;
55720;SDS011;41626;53.098;6.168;2022-08-21T15:01:08;7.47;;;1.33;;
55720;SDS011;41626;53.098;6.168;2022-08-21T15:03:36;5.25;;;1.13;;
55720;SDS011;41626;53.098;6.168;2022-08-21T15:06:03;4.63;;;1.33;;
55720;SDS011;41626;53.098;6.168;2022-08-21T15:08:30;3.38;;;1.02;;
55720;SDS011;41626;53.098;6.168;2022-08-21T15:10:57;3.72;;;1.05;;
55720;SDS011;41626;53.098;6.168;2022-08-21T15:13:23;4.25;;;1.05;;
55720;SDS011;41626;53.098;6.168;2022-08-21T15:15:50;5.00;;;1.58;;
55720;SDS011;41626;53.098;6.168;2022-08-21T15:18:18;5.30;;;2.22;;
55720;SDS011;41626;53.098;6.168;2022-08-21T15:20:44;5.43;;;0.90;;
55720;SDS011;41626;53.098;6.168;2022-08-21T15:23:10;8.95;;;2.50;;
55720;SDS011;41626;53.098;6.168;2022-08-21T15:25:36;4.57;;;1.60;;
55720;SDS011;41626;53.098;6.168;2022-08-21T15:28:04;3.50;;;1.13;;
55720;SDS011;41626;53.098;6.168;2022-08-21T15:30:30;6.00;;;1.52;;
55720;SDS011;41626;53.098;6.168;2022-08-21T15:32:56;4.28;;;1.45;;
55720;SDS011;41626;53.098;6.168;2022-08-21T15:35:22;7.30;;;2.03;;
55720;SDS011;41626;53.098;6.168;2022-08-21T15:37:48;6.03;;;1.48;;
55720;SDS011;41626;53.098;6.168;2022-08-21T15:40:14;4.85;;;1.67;;
55720;SDS011;41626;53.098;6.168;2022-08-21T15:42:41;9.60;;;2.72;;
55720;SDS011;41626;53.098;6.168;2022-08-21T15:45:07;3.95;;;0.93;;
55720;SDS011;41626;53.098;6.168;2022-08-21T15:47:35;4.13;;;1.38;;
55720;SDS011;41626;53.098;6.168;2022-08-21T15:50:04;8.25;;;1.65;;
55720;SDS011;41626;53.098;6.168;2022-08-21T15:52:32;3.87;;;1.47;;
55720;SDS011;41626;53.098;6.168;2022-08-21T15:54:57;8.45;;;2.10;;
55720;SDS011;41626;53.098;6.168;2022-08-21T15:57:24;8.80;;;2.72;;
55720;SDS011;41626;53.098;6.168;2022-08-21T15:59:57;10.27;;;1.70;;
55720;SDS011;41626;53.098;6.168;2022-08-21T16:02:33;8.45;;;1.95;;
55720;SDS011;41626;53.098;6.168;2022-08-21T16:04:59;6.15;;;1.42;;
55720;SDS011;41626;53.098;6.168;2022-08-21T16:07:25;6.10;;;1.50;;
55720;SDS011;41626;53.098;6.168;2022-08-21T16:09:50;7.43;;;1.48;;
55720;SDS011;41626;53.098;6.168;2022-08-21T16:12:17;5.28;;;1.58;;
55720;SDS011;41626;53.098;6.168;2022-08-21T16:14:47;9.00;;;1.80;;